Mekoryuk, Alaska
Current Conditions -  °F | °C
As of 2:56 PM on Friday 31 Oct 2014 (Local Time) from PAMY Reporting Station
Overcast Overcast  
Wind Chill:   Ceiling: 1200
Heat Index: 21°   Visibility: 10mi
Dew Point: 10°   Wind: 28mph
Humidity: 63%   Direction: 60°ENE
Pressure: 29.09"   Gusts: 36mph
Location:  60.39°N, 166.19°W
Report Text: PAMY 312256Z AUTO 06024G31KT 10SM OVC012 M06/M12 A2909 RMK AO1
Loading
Personal Weather Stations






























Interactive Weather Map
Tropical Storm Tracking
New forecast layout! Learn more

10-Day Weather Forecast

Advertisements
Track Severe Weather on mobile